createdAt,value
2016-11-29T00:00:12.483Z,18.30
2016-11-29T00:01:12.557Z,18.30
2016-11-29T00:02:12.315Z,18.20
2016-11-29T00:03:13.201Z,18.30
2016-11-29T00:04:11.816Z,18.30
2016-11-29T00:05:12.378Z,18.20
2016-11-29T00:06:12.097Z,18.20
2016-11-29T00:07:11.190Z,18.30
2016-11-29T00:08:13.448Z,18.30
2016-11-29T00:09:10.117Z,18.30
2016-11-29T00:10:13.244Z,18.30
2016-11-29T00:11:10.030Z,18.20
2016-11-29T00:12:12.618Z,18.30
2016-11-29T00:13:11.740Z,18.30
2016-11-29T00:14:11.720Z,18.30
2016-11-29T00:15:12.279Z,18.20
2016-11-29T00:16:11.894Z,18.20
2016-11-29T00:17:10.204Z,18.20
2016-11-29T00:18:10.400Z,18.20
2016-11-29T00:19:11.876Z,18.20
2016-11-29T00:20:11.998Z,18.20
2016-11-29T00:21:11.827Z,18.20
2016-11-29T00:22:09.532Z,18.20
2016-11-29T00:23:11.326Z,18.20
2016-11-29T00:24:12.459Z,18.20
2016-11-29T00:25:12.081Z,18.20
2016-11-29T00:26:12.889Z,18.20
2016-11-29T00:27:11.983Z,18.20
2016-11-29T00:28:12.342Z,18.20
2016-11-29T00:29:11.561Z,18.20
2016-11-29T00:30:13.264Z,18.20
2016-11-29T00:31:11.765Z,18.20
2016-11-29T00:32:11.881Z,18.20
2016-11-29T00:33:12.315Z,18.20
2016-11-29T00:34:12.175Z,18.20
2016-11-29T00:35:11.182Z,18.20
2016-11-29T00:36:11.164Z,18.20
2016-11-29T00:37:12.757Z,18.20
2016-11-29T00:38:13.221Z,18.20
2016-11-29T00:39:11.820Z,18.20
2016-11-29T00:40:11.935Z,18.20
2016-11-29T00:41:12.080Z,18.20
2016-11-29T00:42:11.242Z,18.20
2016-11-29T00:43:12.920Z,18.20
2016-11-29T00:44:12.446Z,18.20
2016-11-29T00:45:12.400Z,18.20
2016-11-29T00:46:10.102Z,18.20
2016-11-29T00:47:12.999Z,18.10
2016-11-29T00:48:11.607Z,18.20
2016-11-29T00:49:11.629Z,18.20
2016-11-29T00:50:11.772Z,18.20
2016-11-29T00:51:11.886Z,18.10
2016-11-29T00:52:11.942Z,18.20
2016-11-29T00:53:14.424Z,18.20
2016-11-29T00:54:11.620Z,18.20
2016-11-29T00:55:12.140Z,18.20
2016-11-29T00:56:11.182Z,18.20
2016-11-29T00:57:11.218Z,18.20
2016-11-29T00:58:11.658Z,18.20
2016-11-29T00:59:11.628Z,18.20
2016-11-29T01:00:14.284Z,18.20
2016-11-29T01:01:14.041Z,18.20
2016-11-29T01:02:15.286Z,18.20
2016-11-29T01:03:11.948Z,18.10
2016-11-29T01:04:13.519Z,18.10
2016-11-29T01:05:12.683Z,18.10
2016-11-29T01:06:13.947Z,18.10
2016-11-29T01:07:14.833Z,18.10
2016-11-29T01:08:16.137Z,18.10
2016-11-29T01:09:11.451Z,18.10
2016-11-29T01:10:14.124Z,18.10
2016-11-29T01:11:13.256Z,18.10
2016-11-29T01:12:11.289Z,18.10
2016-11-29T01:13:11.924Z,18.10
2016-11-29T01:14:12.113Z,18.10
2016-11-29T01:15:11.909Z,18.10
2016-11-29T01:16:14.131Z,18.10
2016-11-29T01:17:13.480Z,18.20
2016-11-29T01:18:14.845Z,18.10
2016-11-29T01:19:11.391Z,18.10
2016-11-29T01:20:12.461Z,18.10
2016-11-29T01:21:12.942Z,18.10
2016-11-29T01:22:12.646Z,18.10
2016-11-29T01:23:13.553Z,18.10
2016-11-29T01:24:13.648Z,18.10
2016-11-29T01:25:12.318Z,18.10
2016-11-29T01:26:12.745Z,18.10
2016-11-29T01:27:12.550Z,18.10
2016-11-29T01:28:09.953Z,18.10
2016-11-29T01:29:11.818Z,18.10
2016-11-29T01:30:12.434Z,18.10
2016-11-29T01:31:11.480Z,18.10
2016-11-29T01:32:12.403Z,18.10
2016-11-29T01:33:13.331Z,18.10
2016-11-29T01:34:11.887Z,18.10
2016-11-29T01:35:14.378Z,18.10
2016-11-29T01:36:11.435Z,18.10
2016-11-29T01:37:11.801Z,18.10
2016-11-29T01:38:14.808Z,18.10
2016-11-29T01:39:10.277Z,18.10
2016-11-29T01:40:10.025Z,18.10
2016-11-29T01:41:12.544Z,18.10
2016-11-29T01:42:12.488Z,18.10
2016-11-29T01:43:14.793Z,18.10
2016-11-29T01:44:13.659Z,18.10
2016-11-29T01:45:11.423Z,18.10
2016-11-29T01:46:12.783Z,18.10
2016-11-29T01:47:13.725Z,18.10
2016-11-29T01:48:11.803Z,18.10
2016-11-29T01:49:12.379Z,18.10
2016-11-29T01:50:13.045Z,18.10
2016-11-29T01:51:12.774Z,18.10
2016-11-29T01:52:12.589Z,18.10
2016-11-29T01:53:13.997Z,18.10
2016-11-29T01:54:12.126Z,18.10
2016-11-29T01:55:11.839Z,18.10
2016-11-29T01:56:12.461Z,18.10
2016-11-29T01:57:12.157Z,18.10
2016-11-29T01:58:13.055Z,18.10
2016-11-29T01:59:11.170Z,18.10
2016-11-29T02:00:12.029Z,18.10
2016-11-29T02:01:11.948Z,18.10
2016-11-29T02:02:13.155Z,18.10
2016-11-29T02:03:12.130Z,18.10
2016-11-29T02:04:11.258Z,18.10
2016-11-29T02:05:13.435Z,18.10
2016-11-29T02:06:12.743Z,18.00
2016-11-29T02:07:13.877Z,18.10
2016-11-29T02:08:13.751Z,18.00
2016-11-29T02:09:08.899Z,18.10
2016-11-29T02:10:11.717Z,18.10
2016-11-29T02:11:11.817Z,18.00
2016-11-29T02:12:12.330Z,18.10
2016-11-29T02:13:11.439Z,18.10
2016-11-29T02:14:11.969Z,18.10
2016-11-29T02:15:12.528Z,18.00
2016-11-29T02:16:12.137Z,18.00
2016-11-29T02:17:13.390Z,18.00
2016-11-29T02:18:13.148Z,18.00
2016-11-29T02:19:12.935Z,18.00
2016-11-29T02:20:12.060Z,18.00
2016-11-29T02:21:11.779Z,18.00
2016-11-29T02:22:12.321Z,18.00
2016-11-29T02:23:12.037Z,18.00
2016-11-29T02:24:08.727Z,18.00
2016-11-29T02:25:12.469Z,18.00
2016-11-29T02:26:12.818Z,18.00
2016-11-29T02:27:14.329Z,18.00
2016-11-29T02:28:11.529Z,18.00
2016-11-29T02:29:12.226Z,18.00
2016-11-29T02:30:11.499Z,18.00
2016-11-29T02:31:11.579Z,18.00
2016-11-29T02:32:11.684Z,18.00
2016-11-29T02:33:11.729Z,18.00
2016-11-29T02:34:13.062Z,18.00
2016-11-29T02:35:11.947Z,18.00
2016-11-29T02:36:12.303Z,18.00
2016-11-29T02:37:10.063Z,18.00
2016-11-29T02:38:11.787Z,18.00
2016-11-29T02:39:13.812Z,18.10
2016-11-29T02:40:12.444Z,18.00
2016-11-29T02:41:14.374Z,18.00
2016-11-29T02:42:12.156Z,18.00
2016-11-29T02:43:13.103Z,18.00
2016-11-29T02:44:12.045Z,18.00
2016-11-29T02:45:11.837Z,18.00
2016-11-29T02:46:11.874Z,18.00
2016-11-29T02:47:12.477Z,18.00
2016-11-29T02:48:12.915Z,18.00
2016-11-29T02:49:13.084Z,18.00
2016-11-29T02:50:11.783Z,18.00
2016-11-29T02:51:12.583Z,18.00
2016-11-29T02:52:12.393Z,18.00
2016-11-29T02:53:11.401Z,18.00
2016-11-29T02:54:12.193Z,18.00
2016-11-29T02:55:12.644Z,18.00
2016-11-29T02:56:11.605Z,18.00
2016-11-29T02:57:12.356Z,18.00
2016-11-29T02:58:12.201Z,18.00
2016-11-29T02:59:10.110Z,18.00
2016-11-29T03:00:12.472Z,18.00
2016-11-29T03:01:12.022Z,18.00
2016-11-29T03:02:12.064Z,18.00
2016-11-29T03:03:11.104Z,18.00
2016-11-29T03:04:11.204Z,18.00
2016-11-29T03:05:13.492Z,18.00
2016-11-29T03:06:12.164Z,18.00
2016-11-29T03:07:12.713Z,18.00
2016-11-29T03:08:11.835Z,18.00
2016-11-29T03:09:12.511Z,18.00
2016-11-29T03:10:12.096Z,18.00
2016-11-29T03:11:11.963Z,18.00
2016-11-29T03:12:12.842Z,18.00
2016-11-29T03:13:11.901Z,18.00
2016-11-29T03:14:12.901Z,18.00
2016-11-29T03:15:12.638Z,18.00
2016-11-29T03:16:13.242Z,18.00
2016-11-29T03:17:09.334Z,18.00
2016-11-29T03:18:12.650Z,18.00
2016-11-29T03:19:12.512Z,18.00
2016-11-29T03:20:12.187Z,18.00
2016-11-29T03:21:11.900Z,18.00
2016-11-29T03:22:12.874Z,18.00
2016-11-29T03:23:12.870Z,18.00
2016-11-29T03:24:12.154Z,18.00
2016-11-29T03:25:12.120Z,18.00
2016-11-29T03:26:11.201Z,18.00
2016-11-29T03:27:12.764Z,18.00
2016-11-29T03:28:11.931Z,18.00
2016-11-29T03:29:12.858Z,18.00
2016-11-29T03:30:12.181Z,18.00
2016-11-29T03:31:11.300Z,18.00
2016-11-29T03:32:11.451Z,18.00
2016-11-29T03:33:11.773Z,18.00
2016-11-29T03:34:12.712Z,18.00
2016-11-29T03:35:11.820Z,18.00
2016-11-29T03:36:13.801Z,18.00
2016-11-29T03:37:11.755Z,18.00
2016-11-29T03:38:12.573Z,18.00
2016-11-29T03:39:11.872Z,18.00
2016-11-29T03:40:13.504Z,18.00
2016-11-29T03:41:14.190Z,17.90
2016-11-29T03:42:13.030Z,18.00
2016-11-29T03:43:11.857Z,17.90
2016-11-29T03:44:10.208Z,18.00
2016-11-29T03:45:12.356Z,18.00
2016-11-29T03:46:11.877Z,18.00
2016-11-29T03:47:13.017Z,17.90
2016-11-29T03:48:11.821Z,18.00
2016-11-29T03:49:13.257Z,18.00
2016-11-29T03:50:12.715Z,18.00
2016-11-29T03:51:11.771Z,18.00
2016-11-29T03:52:11.769Z,18.00
2016-11-29T03:53:13.745Z,18.00
2016-11-29T03:54:11.271Z,18.00
2016-11-29T03:55:12.250Z,18.00
2016-11-29T03:56:11.380Z,17.90
2016-11-29T03:57:13.281Z,17.90
2016-11-29T03:58:12.807Z,18.00
2016-11-29T03:59:13.129Z,18.00
2016-11-29T04:00:12.161Z,17.90
2016-11-29T04:01:11.320Z,17.90
2016-11-29T04:02:09.321Z,17.90
2016-11-29T04:03:10.786Z,17.90
2016-11-29T04:04:12.423Z,17.90
2016-11-29T04:05:12.120Z,17.90
2016-11-29T04:06:11.931Z,17.90
2016-11-29T04:07:12.664Z,18.00
2016-11-29T04:08:11.901Z,18.00
2016-11-29T04:09:09.843Z,18.00
2016-11-29T04:10:12.125Z,18.00
2016-11-29T04:11:13.083Z,17.90
2016-11-29T04:12:11.960Z,17.90
2016-11-29T04:13:12.825Z,17.90
2016-11-29T04:14:12.711Z,17.90
2016-11-29T04:15:12.440Z,17.90
2016-11-29T04:16:13.357Z,17.90
2016-11-29T04:17:13.039Z,17.90
2016-11-29T04:18:11.883Z,17.90
2016-11-29T04:19:12.925Z,17.90
2016-11-29T04:20:11.462Z,17.90
2016-11-29T04:21:11.941Z,17.90
2016-11-29T04:22:13.712Z,17.90
2016-11-29T04:23:12.579Z,17.90
2016-11-29T04:24:12.421Z,17.90
2016-11-29T04:25:13.119Z,17.90
2016-11-29T04:26:12.107Z,17.90
2016-11-29T04:27:12.013Z,17.90
2016-11-29T04:28:11.759Z,17.90
2016-11-29T04:29:12.264Z,17.90
2016-11-29T04:30:10.023Z,17.90
2016-11-29T04:31:11.926Z,17.90
2016-11-29T04:32:11.946Z,17.90
2016-11-29T04:33:10.562Z,17.90
2016-11-29T04:34:09.235Z,17.90
2016-11-29T04:35:11.854Z,17.90
2016-11-29T04:36:11.463Z,17.90
2016-11-29T04:37:13.402Z,17.90
2016-11-29T04:38:13.250Z,17.90
2016-11-29T04:39:10.394Z,17.90
2016-11-29T04:40:11.975Z,17.90
2016-11-29T04:41:11.980Z,17.90
2016-11-29T04:42:12.039Z,17.90
2016-11-29T04:43:11.912Z,17.90
2016-11-29T04:44:12.000Z,17.90
2016-11-29T04:45:11.063Z,17.90
2016-11-29T04:46:12.752Z,17.90
2016-11-29T04:47:12.413Z,17.90
2016-11-29T04:48:11.475Z,17.90
2016-11-29T04:49:13.114Z,17.90
2016-11-29T04:50:12.689Z,17.90
2016-11-29T04:51:12.244Z,17.90
2016-11-29T04:52:11.338Z,17.90
2016-11-29T04:53:11.983Z,17.90
2016-11-29T04:54:13.054Z,17.90
2016-11-29T04:55:11.775Z,17.90
2016-11-29T04:56:09.577Z,17.90
2016-11-29T04:57:11.821Z,17.90
2016-11-29T04:58:12.301Z,17.90
2016-11-29T04:59:13.122Z,17.90
2016-11-29T05:00:12.804Z,17.90
2016-11-29T05:01:12.652Z,17.90
2016-11-29T05:02:10.087Z,17.90
2016-11-29T05:03:12.186Z,17.90
2016-11-29T05:04:10.874Z,17.90
2016-11-29T05:05:11.503Z,17.90
2016-11-29T05:06:11.495Z,17.90
2016-11-29T05:07:11.463Z,17.90
2016-11-29T05:08:10.276Z,17.90
2016-11-29T05:09:12.303Z,17.90
2016-11-29T05:10:11.445Z,17.90
2016-11-29T05:11:11.708Z,17.90
2016-11-29T05:12:11.213Z,17.90
2016-11-29T05:13:11.938Z,17.90
2016-11-29T05:14:13.780Z,17.90
2016-11-29T05:15:11.844Z,17.90
2016-11-29T05:16:12.622Z,17.90
2016-11-29T05:17:13.076Z,17.90
2016-11-29T05:18:11.735Z,17.90
2016-11-29T05:19:11.373Z,17.90
2016-11-29T05:20:12.436Z,17.90
2016-11-29T05:21:12.307Z,17.90
2016-11-29T05:22:12.483Z,17.90
2016-11-29T05:23:13.027Z,17.90
2016-11-29T05:24:09.931Z,17.90
2016-11-29T05:25:15.567Z,17.90
2016-11-29T05:26:11.774Z,17.90
2016-11-29T05:27:11.863Z,17.90
2016-11-29T05:28:11.904Z,17.90
2016-11-29T05:29:10.324Z,17.90
2016-11-29T05:30:13.352Z,17.90
2016-11-29T05:31:12.305Z,17.90
2016-11-29T05:32:13.274Z,17.90
2016-11-29T05:33:11.966Z,17.90
2016-11-29T05:34:12.580Z,17.90
2016-11-29T05:35:12.865Z,17.90
2016-11-29T05:36:11.987Z,17.90
2016-11-29T05:37:12.077Z,17.90
2016-11-29T05:38:11.291Z,17.90
2016-11-29T05:39:15.055Z,17.90
2016-11-29T05:40:12.845Z,17.90
2016-11-29T05:41:10.119Z,17.90
2016-11-29T05:42:12.767Z,17.90
2016-11-29T05:43:13.357Z,17.90
2016-11-29T05:44:12.034Z,17.90
2016-11-29T05:45:11.730Z,17.90
2016-11-29T05:46:11.688Z,17.90
2016-11-29T05:47:11.863Z,17.90
2016-11-29T05:48:12.829Z,17.90
2016-11-29T05:49:12.377Z,17.90
2016-11-29T05:50:11.478Z,17.90
2016-11-29T05:51:09.976Z,17.90
2016-11-29T05:52:11.423Z,17.90
2016-11-29T05:53:12.062Z,17.90
2016-11-29T05:54:11.572Z,17.90
2016-11-29T05:55:11.999Z,17.90
2016-11-29T05:56:11.965Z,17.90
2016-11-29T05:57:12.317Z,17.90
2016-11-29T05:58:11.873Z,17.90
2016-11-29T05:59:12.575Z,17.90
2016-11-29T06:00:12.247Z,17.90
2016-11-29T06:01:11.912Z,17.80
2016-11-29T06:02:11.756Z,17.80
2016-11-29T06:03:13.555Z,17.80
2016-11-29T06:04:11.556Z,17.80
2016-11-29T06:05:12.272Z,17.90
2016-11-29T06:06:13.889Z,17.90
2016-11-29T06:07:11.961Z,17.80
2016-11-29T06:08:13.027Z,17.80
2016-11-29T06:09:11.697Z,17.90
2016-11-29T06:10:12.357Z,17.90
2016-11-29T06:11:11.930Z,17.90
2016-11-29T06:12:12.576Z,17.80
2016-11-29T06:13:11.608Z,17.80
2016-11-29T06:14:11.651Z,17.80
2016-11-29T06:15:11.689Z,17.80
2016-11-29T06:16:12.169Z,17.80
2016-11-29T06:17:11.690Z,17.90
2016-11-29T06:18:11.753Z,17.80
2016-11-29T06:19:12.593Z,17.90
2016-11-29T06:20:12.171Z,17.90
2016-11-29T06:21:12.781Z,17.90
2016-11-29T06:22:12.418Z,17.90
2016-11-29T06:23:11.529Z,17.90
2016-11-29T06:24:11.657Z,17.90
2016-11-29T06:25:13.422Z,17.90
2016-11-29T06:26:12.560Z,17.90
2016-11-29T06:27:12.265Z,17.90
2016-11-29T06:28:11.371Z,17.90
2016-11-29T06:29:13.229Z,17.90
2016-11-29T06:30:13.023Z,17.90
2016-11-29T06:31:13.859Z,17.90
2016-11-29T06:32:13.093Z,17.90
2016-11-29T06:33:12.202Z,18.00
2016-11-29T06:34:11.362Z,18.00
2016-11-29T06:35:11.853Z,18.00
2016-11-29T06:36:12.403Z,18.00
2016-11-29T06:37:08.732Z,18.00
2016-11-29T06:38:10.352Z,18.00
2016-11-29T06:39:13.703Z,18.00
2016-11-29T06:40:12.153Z,17.90
2016-11-29T06:41:11.325Z,17.50
2016-11-29T06:42:12.256Z,17.30
2016-11-29T06:43:10.003Z,17.00
2016-11-29T06:44:13.021Z,17.00
2016-11-29T06:45:12.008Z,17.00
2016-11-29T06:46:12.413Z,17.10
2016-11-29T06:47:11.464Z,16.50
2016-11-29T06:48:12.254Z,15.10
2016-11-29T06:49:11.957Z,14.20
2016-11-29T06:50:12.552Z,13.40
2016-11-29T06:51:13.365Z,13.40
2016-11-29T06:52:13.058Z,13.40
2016-11-29T06:53:12.294Z,13.70
2016-11-29T06:54:11.928Z,14.00
2016-11-29T06:55:13.084Z,14.30
2016-11-29T06:56:11.129Z,14.50
2016-11-29T06:57:09.797Z,14.80
2016-11-29T06:58:11.630Z,15.10
2016-11-29T06:59:11.694Z,15.40
2016-11-29T07:00:11.766Z,15.60
2016-11-29T07:01:11.859Z,15.90
2016-11-29T07:02:11.987Z,16.10
2016-11-29T07:03:12.062Z,16.20
2016-11-29T07:04:12.323Z,16.40
2016-11-29T07:05:10.171Z,16.50
2016-11-29T07:06:13.022Z,16.70
2016-11-29T07:07:12.908Z,16.80
2016-11-29T07:08:11.944Z,16.90
2016-11-29T07:09:09.022Z,17.00
2016-11-29T07:10:11.517Z,17.00
2016-11-29T07:11:10.057Z,17.10
2016-11-29T07:12:12.035Z,17.10
2016-11-29T07:13:11.220Z,17.20
2016-11-29T07:14:13.675Z,17.20
2016-11-29T07:15:11.735Z,17.20
2016-11-29T07:16:12.378Z,17.30
2016-11-29T07:17:12.281Z,17.30
2016-11-29T07:18:11.972Z,17.30
2016-11-29T07:19:12.838Z,17.40
2016-11-29T07:20:12.277Z,17.40
2016-11-29T07:21:11.655Z,17.40
2016-11-29T07:22:11.881Z,17.40
2016-11-29T07:23:11.924Z,17.50
2016-11-29T07:24:12.031Z,17.50
2016-11-29T07:25:12.580Z,17.50
2016-11-29T07:26:11.730Z,17.50
2016-11-29T07:27:11.779Z,17.50
2016-11-29T07:28:10.299Z,17.50
2016-11-29T07:29:12.299Z,17.50
2016-11-29T07:30:11.512Z,17.50
2016-11-29T07:31:11.347Z,17.60
2016-11-29T07:32:11.459Z,17.60
2016-11-29T07:33:12.363Z,17.60
2016-11-29T07:34:11.580Z,17.60
2016-11-29T07:35:12.220Z,17.60
2016-11-29T07:36:11.904Z,17.60
2016-11-29T07:37:12.460Z,17.60
2016-11-29T07:38:12.192Z,17.60
2016-11-29T07:39:12.464Z,17.60
2016-11-29T07:40:12.232Z,17.70
2016-11-29T07:41:12.729Z,17.60
2016-11-29T07:42:11.767Z,17.60
2016-11-29T07:43:13.228Z,17.60
2016-11-29T07:44:11.582Z,17.60
2016-11-29T07:45:12.200Z,17.60
2016-11-29T07:46:11.898Z,17.60
2016-11-29T07:47:12.658Z,17.70
2016-11-29T07:48:09.924Z,17.70
2016-11-29T07:49:11.718Z,17.60
2016-11-29T07:50:12.526Z,17.70
2016-11-29T07:51:11.691Z,17.70
2016-11-29T07:52:12.241Z,17.70
2016-11-29T07:53:11.965Z,17.70
2016-11-29T07:54:12.621Z,17.70
2016-11-29T07:55:12.866Z,17.70
2016-11-29T07:56:12.702Z,17.70
2016-11-29T07:57:13.227Z,17.70
2016-11-29T07:58:12.928Z,17.70
2016-11-29T07:59:12.143Z,17.70
2016-11-29T08:00:11.767Z,17.70
2016-11-29T08:01:12.435Z,17.70
2016-11-29T08:02:11.480Z,17.70
2016-11-29T08:03:11.999Z,17.70
2016-11-29T08:04:12.419Z,17.70
2016-11-29T08:05:12.128Z,17.70
2016-11-29T08:06:11.943Z,17.70
2016-11-29T08:07:12.889Z,17.70
2016-11-29T08:08:11.830Z,17.70
2016-11-29T08:09:13.054Z,17.70
2016-11-29T08:10:11.279Z,17.70
2016-11-29T08:11:12.731Z,17.70
2016-11-29T08:12:12.331Z,17.70
2016-11-29T08:13:12.072Z,17.70
2016-11-29T08:14:11.918Z,17.70
2016-11-29T08:15:11.999Z,17.70
2016-11-29T08:16:12.778Z,17.70
2016-11-29T08:17:12.468Z,17.70
2016-11-29T08:18:12.088Z,17.70
2016-11-29T08:19:11.829Z,17.70
2016-11-29T08:20:11.854Z,17.70
2016-11-29T08:21:12.674Z,17.70
2016-11-29T08:22:11.675Z,17.70
2016-11-29T08:23:11.752Z,17.70
2016-11-29T08:24:11.995Z,17.70
2016-11-29T08:25:12.372Z,17.70
2016-11-29T08:26:12.294Z,17.70
2016-11-29T08:27:11.455Z,17.70
2016-11-29T08:28:12.292Z,17.70
2016-11-29T08:29:11.739Z,17.70
2016-11-29T08:30:11.872Z,17.70
2016-11-29T08:31:11.955Z,17.70
2016-11-29T08:32:12.140Z,17.70
2016-11-29T08:33:11.156Z,17.70
2016-11-29T08:34:12.904Z,17.70
2016-11-29T08:35:11.359Z,17.70
2016-11-29T08:36:12.417Z,17.70
2016-11-29T08:37:14.225Z,17.70
2016-11-29T08:38:11.910Z,17.70
2016-11-29T08:39:12.477Z,17.70
2016-11-29T08:40:11.558Z,17.70
2016-11-29T08:41:12.436Z,17.70
2016-11-29T08:42:11.585Z,17.70
2016-11-29T08:43:11.701Z,17.70
2016-11-29T08:44:12.417Z,17.70
2016-11-29T08:45:11.492Z,17.70
2016-11-29T08:46:11.511Z,17.70
2016-11-29T08:47:12.333Z,17.70
2016-11-29T08:48:11.559Z,17.70
2016-11-29T08:49:11.692Z,17.70
2016-11-29T08:50:13.334Z,17.70
2016-11-29T08:51:11.387Z,17.70
2016-11-29T08:52:13.137Z,17.70
2016-11-29T08:53:11.153Z,17.70
2016-11-29T08:54:12.063Z,17.70
2016-11-29T08:55:11.006Z,17.70
2016-11-29T08:56:12.001Z,17.70
2016-11-29T08:57:11.747Z,17.70
2016-11-29T08:58:11.831Z,17.60
2016-11-29T08:59:12.472Z,17.60
2016-11-29T09:00:11.689Z,17.60
2016-11-29T09:01:09.522Z,17.60
2016-11-29T09:02:12.550Z,17.60
2016-11-29T09:03:10.047Z,17.60
2016-11-29T09:04:11.680Z,17.60
2016-11-29T09:05:12.265Z,17.60
2016-11-29T09:06:11.226Z,17.60
2016-11-29T09:07:11.471Z,17.70
2016-11-29T09:08:09.243Z,17.70
2016-11-29T09:09:12.952Z,17.70
2016-11-29T09:10:10.623Z,17.60
2016-11-29T09:11:10.791Z,17.50
2016-11-29T09:12:11.501Z,17.30
2016-11-29T09:13:12.073Z,17.00
2016-11-29T09:14:12.814Z,16.90
2016-11-29T09:15:13.612Z,16.90
2016-11-29T09:16:12.005Z,16.90
2016-11-29T09:17:12.442Z,16.90
2016-11-29T09:18:13.222Z,16.90
2016-11-29T09:19:11.240Z,17.00
2016-11-29T09:20:11.359Z,17.00
2016-11-29T09:21:11.861Z,17.10
2016-11-29T09:22:11.933Z,17.10
2016-11-29T09:23:12.561Z,17.10
2016-11-29T09:24:12.382Z,17.10
2016-11-29T09:25:12.073Z,17.20
2016-11-29T09:26:11.862Z,17.20
2016-11-29T09:27:12.449Z,17.30
2016-11-29T09:28:08.761Z,17.30
2016-11-29T09:29:11.066Z,17.30
2016-11-29T09:30:11.297Z,17.40
2016-11-29T09:31:11.620Z,17.40
2016-11-29T09:32:12.347Z,17.50
2016-11-29T09:33:12.725Z,17.50
2016-11-29T09:34:11.711Z,17.50
2016-11-29T09:35:12.199Z,17.50
2016-11-29T09:36:12.062Z,17.50
2016-11-29T09:37:11.941Z,17.50
2016-11-29T09:38:11.962Z,17.50
2016-11-29T09:39:11.994Z,17.50
2016-11-29T09:40:12.731Z,17.50
2016-11-29T09:41:12.082Z,17.50
2016-11-29T09:42:11.648Z,17.50
2016-11-29T09:43:12.812Z,17.50
2016-11-29T09:44:12.409Z,17.50
2016-11-29T09:45:12.139Z,17.50
2016-11-29T09:46:11.867Z,17.50
2016-11-29T09:47:12.617Z,17.50
2016-11-29T09:48:11.620Z,17.50
2016-11-29T09:49:11.716Z,17.50
2016-11-29T09:50:13.526Z,17.50
2016-11-29T09:51:11.679Z,17.50
2016-11-29T09:52:12.358Z,17.50
2016-11-29T09:53:12.402Z,17.50
2016-11-29T09:54:11.968Z,17.50
2016-11-29T09:55:12.434Z,17.50
2016-11-29T09:56:11.508Z,17.50
2016-11-29T09:57:12.428Z,17.50
2016-11-29T09:58:13.130Z,17.50
2016-11-29T09:59:11.809Z,17.50
2016-11-29T10:00:12.180Z,17.50
2016-11-29T10:01:12.679Z,17.50
2016-11-29T10:02:12.318Z,17.50
2016-11-29T10:03:11.413Z,17.50
2016-11-29T10:04:12.149Z,17.50
2016-11-29T10:05:11.232Z,17.50
2016-11-29T10:06:11.947Z,17.50
2016-11-29T10:07:10.210Z,17.50
2016-11-29T10:08:12.288Z,17.60
2016-11-29T10:09:11.288Z,17.50
2016-11-29T10:10:11.880Z,17.60
2016-11-29T10:11:11.507Z,17.60
2016-11-29T10:12:11.490Z,17.50
2016-11-29T10:13:13.191Z,17.60
2016-11-29T10:14:11.280Z,17.50
2016-11-29T10:15:13.052Z,17.60
2016-11-29T10:16:12.867Z,17.60
2016-11-29T10:17:12.122Z,17.60
2016-11-29T10:18:13.961Z,17.60
2016-11-29T10:19:09.128Z,17.60
2016-11-29T10:20:12.694Z,17.60
2016-11-29T10:21:15.412Z,17.60
2016-11-29T10:22:11.937Z,17.60
2016-11-29T10:23:10.315Z,17.60
2016-11-29T10:24:12.268Z,17.60
2016-11-29T10:25:12.069Z,17.60
2016-11-29T10:26:12.792Z,17.60
2016-11-29T10:27:11.703Z,17.60
2016-11-29T10:28:12.281Z,17.60
2016-11-29T10:29:12.022Z,17.60
2016-11-29T10:30:12.085Z,17.60
2016-11-29T10:31:11.708Z,17.60
2016-11-29T10:32:11.740Z,17.60
2016-11-29T10:33:12.141Z,17.60
2016-11-29T10:34:11.940Z,17.60
2016-11-29T10:35:12.321Z,17.60
2016-11-29T10:36:11.993Z,17.60
2016-11-29T10:37:12.030Z,17.60
2016-11-29T10:38:12.601Z,17.60
2016-11-29T10:39:13.049Z,17.60
2016-11-29T10:40:11.793Z,17.60
2016-11-29T10:41:11.711Z,17.60
2016-11-29T10:42:12.381Z,17.60
2016-11-29T10:43:11.321Z,17.60
2016-11-29T10:44:11.340Z,17.60
2016-11-29T10:45:11.284Z,17.60
2016-11-29T10:46:11.431Z,17.60
2016-11-29T10:47:11.535Z,17.60
2016-11-29T10:48:13.425Z,17.60
2016-11-29T10:49:11.472Z,17.60
2016-11-29T10:50:12.210Z,17.60
2016-11-29T10:51:12.303Z,17.60
2016-11-29T10:52:11.900Z,17.60
2016-11-29T10:53:11.841Z,17.60
2016-11-29T10:54:12.210Z,17.60
2016-11-29T10:55:11.972Z,17.60
2016-11-29T10:56:11.992Z,17.60
2016-11-29T10:57:12.602Z,17.60
2016-11-29T10:58:14.311Z,17.60
2016-11-29T10:59:11.500Z,17.60
2016-11-29T11:00:12.105Z,17.60
2016-11-29T11:01:12.111Z,17.60
2016-11-29T11:02:11.651Z,17.60
2016-11-29T11:03:11.796Z,17.60
2016-11-29T11:04:11.834Z,17.60
2016-11-29T11:05:12.602Z,17.60
2016-11-29T11:06:11.697Z,17.60
2016-11-29T11:07:11.656Z,17.60
2016-11-29T11:08:12.007Z,17.60
2016-11-29T11:09:12.170Z,17.60
2016-11-29T11:10:11.466Z,17.60
2016-11-29T11:11:12.100Z,17.60
2016-11-29T11:12:12.104Z,17.60
2016-11-29T11:13:08.293Z,17.60
2016-11-29T11:14:12.200Z,17.60
2016-11-29T11:15:11.553Z,17.60
2016-11-29T11:16:11.664Z,17.60
2016-11-29T11:17:13.182Z,17.60
2016-11-29T11:18:13.050Z,17.60
2016-11-29T11:19:12.960Z,17.60
2016-11-29T11:20:11.447Z,17.60
2016-11-29T11:21:13.229Z,17.60
2016-11-29T11:22:12.298Z,17.60
2016-11-29T11:23:13.429Z,17.60
2016-11-29T11:24:13.050Z,17.60
2016-11-29T11:25:11.244Z,17.60
2016-11-29T11:26:12.244Z,17.60
2016-11-29T11:27:11.233Z,17.60
2016-11-29T11:28:11.194Z,17.60
2016-11-29T11:29:11.624Z,17.60
2016-11-29T11:30:11.308Z,17.60
2016-11-29T11:31:11.434Z,17.60
2016-11-29T11:32:11.408Z,17.60
2016-11-29T11:33:11.487Z,17.60
2016-11-29T11:34:12.122Z,17.60
2016-11-29T11:35:11.270Z,17.60
2016-11-29T11:36:13.140Z,17.60
2016-11-29T11:37:11.895Z,17.60
2016-11-29T11:38:11.181Z,17.60
2016-11-29T11:39:12.118Z,17.60
2016-11-29T11:40:11.857Z,17.60
2016-11-29T11:41:11.924Z,17.60
2016-11-29T11:42:09.146Z,17.60
2016-11-29T11:43:14.216Z,17.60
2016-11-29T11:44:11.952Z,17.60
2016-11-29T11:45:10.623Z,17.60
2016-11-29T11:46:11.804Z,17.60
2016-11-29T11:47:11.916Z,17.60
2016-11-29T11:48:12.695Z,17.60
2016-11-29T11:49:11.766Z,17.60
2016-11-29T11:50:11.657Z,17.60
2016-11-29T11:51:12.329Z,17.60
2016-11-29T11:52:12.189Z,17.60
2016-11-29T11:53:11.884Z,17.60
2016-11-29T11:54:11.914Z,17.60
2016-11-29T11:55:11.924Z,17.60
2016-11-29T11:56:12.114Z,17.60
2016-11-29T11:57:11.275Z,17.60
2016-11-29T11:58:11.342Z,17.60
2016-11-29T11:59:12.295Z,17.60
2016-11-29T12:00:11.229Z,17.60
2016-11-29T12:01:11.228Z,17.60
2016-11-29T12:02:12.024Z,17.60
2016-11-29T12:03:11.236Z,17.60
2016-11-29T12:04:13.046Z,17.60
2016-11-29T12:05:11.748Z,17.60
2016-11-29T12:06:11.719Z,17.60
2016-11-29T12:07:12.525Z,17.60
2016-11-29T12:08:12.195Z,17.60
2016-11-29T12:09:11.674Z,17.60
2016-11-29T12:10:11.944Z,17.60
2016-11-29T12:11:12.519Z,17.60
2016-11-29T12:12:11.667Z,17.60
2016-11-29T12:13:12.231Z,17.60
2016-11-29T12:14:13.025Z,17.60
2016-11-29T12:15:12.223Z,17.60
2016-11-29T12:16:09.624Z,17.60
2016-11-29T12:17:13.136Z,17.60
2016-11-29T12:18:12.659Z,17.60
2016-11-29T12:19:11.677Z,17.60
2016-11-29T12:20:12.796Z,17.60
2016-11-29T12:21:11.677Z,17.60
2016-11-29T12:22:11.759Z,17.60
2016-11-29T12:23:11.837Z,17.60
2016-11-29T12:24:10.377Z,17.60
2016-11-29T12:25:11.877Z,17.60
2016-11-29T12:26:12.382Z,17.60
2016-11-29T12:27:11.515Z,17.60
2016-11-29T12:28:11.988Z,17.60
2016-11-29T12:29:11.994Z,17.60
2016-11-29T12:30:12.801Z,17.60
2016-11-29T12:31:12.359Z,17.60
2016-11-29T12:32:11.471Z,17.60
2016-11-29T12:33:11.648Z,17.60
2016-11-29T12:34:12.232Z,17.60
2016-11-29T12:35:11.414Z,17.60
2016-11-29T12:36:10.158Z,17.60
2016-11-29T12:37:12.084Z,17.60
2016-11-29T12:38:11.921Z,17.60
2016-11-29T12:39:11.821Z,17.60
2016-11-29T12:40:12.290Z,17.60
2016-11-29T12:41:12.055Z,17.60
2016-11-29T12:42:09.882Z,17.60
2016-11-29T12:43:11.270Z,17.60
2016-11-29T12:44:12.130Z,17.60
2016-11-29T12:45:11.215Z,17.60
2016-11-29T12:46:12.339Z,17.60
2016-11-29T12:47:11.913Z,17.60
2016-11-29T12:48:09.051Z,17.60
2016-11-29T12:49:11.606Z,17.60
2016-11-29T12:50:12.277Z,17.60
2016-11-29T12:51:11.277Z,17.60
2016-11-29T12:52:11.199Z,17.60